Tambov, Russia
Current Conditions -  °F | °C
As of 6:30 AM on Tuesday 21 Oct 2014 (Local Time) from UUOO Reporting Station
Overcast Overcast  
Wind Chill: 52°   Ceiling: 1000
Heat Index: 52°   Visibility: 5mi
Dew Point: 48°   Wind: 9mph
Humidity: 88%   Direction: 250°WSW
Pressure: 29.47"   Gusts: 18mph
Location:  52.73°N, 41.43°E
Report Text: UUOO 210330Z 25004G08MPS 8000 OVC010 11/09 Q0998 NOSIG RMK30290248
Loading
Personal Weather Stations






























Interactive Weather Map
Tropical Storm Tracking
New forecast layout! Learn more

10-Day Weather Forecast

Advertisements
Track Severe Weather on mobile